Time;durP1;ratioP1;P1;durP2;ratioP2;P2;SDS_P1;SDS_P2;PMS_P1;PMS_P2;Temp;Humidity;BMP_temperature;BMP_pressure;BME280_temperature;BME280_humidity;BME280_pressure;Samples;Min_cycle;Max_cycle;Signal;HPM_P1;HPM_P2
2023/01/18 00:00:51;;;;;;;5.47;3.00;;;-0.40;99.90;;;;;;4949793;28;20065;-85
2023/01/18 00:03:31;;;;;;;6.10;3.45;;;0.10;99.90;;;;;;4966218;28;20529;-90
2023/01/18 00:09:21;;;;;;;8.75;3.95;;;-0.90;99.90;;;;;;4949797;28;20043;-89
2023/01/18 00:12:08;;;;;;;6.68;3.25;;;-1.80;99.90;;;;;;4917704;29;20063;-86
2023/01/18 00:17:51;;;;;;;6.57;2.97;;;-1.10;99.90;;;;;;4910987;29;20451;-87
2023/01/18 00:20:53;;;;;;;8.05;3.20;;;-1.10;99.90;;;;;;4910979;29;20091;-88
2023/01/18 00:24:01;;;;;;;7.25;3.60;;;0.20;99.90;;;;;;4875001;29;20067;-88
2023/01/18 00:27:17;;;;;;;11.07;3.45;;;-1.00;99.90;;;;;;4889312;29;20420;-89
2023/01/18 00:30:00;;;;;;;6.97;3.45;;;-1.10;99.90;;;;;;4910432;29;20032;-89
2023/01/18 00:32:31;;;;;;;11.85;3.50;;;-1.60;99.90;;;;;;4910727;29;20066;-89
2023/01/18 00:35:09;;;;;;;;;;;-1.90;99.90;;;;;;4911388;29;20100;-88
2023/01/18 00:37:55;;;;;;;6.78;3.25;;;-1.20;99.90;;;;;;4994767;28;19922;-87
2023/01/18 00:40:32;;;;;;;12.15;3.30;;;-1.10;99.90;;;;;;5007214;28;20100;-88
2023/01/18 00:45:49;;;;;;;6.85;3.55;;;-1.10;99.90;;;;;;5000487;28;20054;-87
2023/01/18 00:48:15;;;;;;;6.57;3.38;;;0.00;99.90;;;;;;4967546;28;20046;-87
2023/01/18 00:50:41;;;;;;;7.47;3.45;;;-0.60;99.90;;;;;;4968158;28;20054;-87
2023/01/18 00:53:11;;;;;;;8.52;3.53;;;-1.30;99.90;;;;;;4982935;28;20165;-87
2023/01/18 00:55:37;;;;;;;9.32;3.60;;;0.20;99.90;;;;;;5023758;28;20115;-87
2023/01/18 00:58:03;;;;;;;8.88;3.47;;;-0.30;99.90;;;;;;5023512;28;20484;-87
2023/01/18 01:00:32;;;;;;;7.40;3.35;;;-0.10;99.90;;;;;;5100705;27;20066;-88
2023/01/18 01:03:03;;;;;;;7.30;4.10;;;-0.50;99.90;;;;;;5114914;27;20516;-87
2023/01/18 01:08:17;;;;;;;7.03;3.35;;;0.40;99.90;;;;;;5133856;27;20054;-87
2023/01/18 01:10:48;;;;;;;9.18;3.60;;;-0.30;99.90;;;;;;5135600;27;20047;-87
2023/01/18 01:27:11;;;;;;;8.83;3.47;;;-1.20;99.90;;;;;;5133125;27;20051;-87
2023/01/18 01:29:39;;;;;;;9.18;3.85;;;0.10;99.90;;;;;;5114875;27;20096;-86
2023/01/18 01:32:06;;;;;;;8.60;3.60;;;-0.40;99.90;;;;;;5106601;27;20085;-86
2023/01/18 01:34:32;;;;;;;7.03;3.67;;;-0.10;99.90;;;;;;5134928;27;20039;-86
2023/01/18 01:36:57;;;;;;;7.30;3.40;;;-0.20;99.90;;;;;;5135304;27;20191;-86
2023/01/18 01:39:29;;;;;;;8.25;3.80;;;-1.70;99.90;;;;;;5118652;27;20089;-87
2023/01/18 01:41:55;;;;;;;11.43;3.63;;;0.00;99.90;;;;;;5117972;27;20512;-86
2023/01/18 01:44:23;;;;;;;6.40;3.95;;;-1.10;99.90;;;;;;5117133;27;20086;-90
2023/01/18 01:47:34;;;;;;;8.07;4.13;;;-1.20;99.90;;;;;;5134623;27;20493;-88
2023/01/18 01:50:10;;;;;;;7.63;3.78;;;-1.10;99.90;;;;;;4996451;28;20049;-86
2023/01/18 01:52:38;;;;;;;6.07;3.58;;;-1.10;99.90;;;;;;4995795;28;20448;-87
2023/01/18 01:55:32;;;;;;;7.05;4.18;;;-0.40;99.90;;;;;;4996551;28;20057;-86
2023/01/18 01:58:14;;;;;;;9.98;3.92;;;-0.80;99.90;;;;;;4996407;28;20068;-86
2023/01/18 02:00:41;;;;;;;9.93;4.80;;;-1.10;99.90;;;;;;4996061;28;20054;-89
2023/01/18 02:03:08;;;;;;;7.22;4.10;;;-0.20;99.90;;;;;;4996478;28;20377;-89
2023/01/18 02:05:43;;;;;;;6.82;4.18;;;-0.40;99.90;;;;;;5012946;28;20448;-88
2023/01/18 02:08:11;;;;;;;9.20;3.90;;;-0.20;99.90;;;;;;4996197;28;20065;-91
2023/01/18 02:10:37;;;;;;;8.52;3.97;;;-1.40;99.90;;;;;;4995610;28;20053;-90
2023/01/18 02:13:06;;;;;;;8.38;4.50;;;-0.40;99.90;;;;;;4996506;28;20526;-88
2023/01/18 02:16:02;;;;;;;7.10;3.85;;;-1.20;99.90;;;;;;4995692;28;20049;-88
2023/01/18 02:18:51;;;;;;;8.25;4.35;;;-1.20;99.90;;;;;;5028888;28;20123;-87
2023/01/18 02:21:32;;;;;;;8.40;4.05;;;0.10;99.90;;;;;;5011766;28;20475;-85
2023/01/18 02:24:25;;;;;;;9.05;4.40;;;-1.50;99.90;;;;;;4996580;28;20742;-85
2023/01/18 02:27:00;;;;;;;8.02;4.82;;;-1.20;99.90;;;;;;5036742;28;20055;-87
2023/01/18 02:29:26;;;;;;;9.70;4.35;;;-1.20;99.90;;;;;;5110508;28;20088;-85
2023/01/18 02:32:33;;;;;;;8.10;3.90;;;-1.20;99.90;;;;;;5110567;28;20084;-86
2023/01/18 02:35:25;;;;;;;8.52;4.47;;;-1.20;99.90;;;;;;5110057;28;20055;-85
2023/01/18 02:38:19;;;;;;;7.65;4.18;;;-1.20;99.90;;;;;;5109951;28;20059;-90
2023/01/18 02:40:53;;;;;;;8.95;4.50;;;-1.20;99.90;;;;;;5109995;28;20142;-85
2023/01/18 02:48:56;;;;;;;6.50;3.92;;;-1.70;99.90;;;;;;5140433;27;20065;-85
2023/01/18 02:51:22;;;;;;;8.10;4.32;;;-1.70;99.90;;;;;;5133818;27;20047;-87
2023/01/18 02:53:48;;;;;;;9.85;4.20;;;-1.10;99.90;;;;;;5152308;27;20103;-91
2023/01/18 02:56:29;;;;;;;7.70;4.35;;;-0.80;99.90;;;;;;5116513;27;20433;-88
2023/01/18 02:59:14;;;;;;;7.10;3.95;;;-1.20;99.90;;;;;;5133291;27;20046;-86
2023/01/18 03:01:43;;;;;;;9.00;4.45;;;-0.90;99.90;;;;;;5122030;27;20055;-86
2023/01/18 03:04:21;;;;;;;10.13;4.43;;;0.20;99.90;;;;;;5096725;27;20402;-89
2023/01/18 03:06:52;;;;;;;9.75;4.53;;;-1.30;99.90;;;;;;5113349;27;20050;-89
2023/01/18 03:09:20;;;;;;;8.90;4.90;;;-0.20;99.90;;;;;;5103036;27;20393;-89
2023/01/18 03:12:06;;;;;;;9.13;4.70;;;-0.30;99.90;;;;;;5116382;27;20501;-85
2023/01/18 03:15:08;;;;;;;7.88;4.65;;;-1.50;99.90;;;;;;5132781;27;20051;-90
2023/01/18 03:17:40;;;;;;;8.32;4.90;;;-1.40;99.90;;;;;;5014093;28;20053;-85
2023/01/18 03:20:13;;;;;;;7.70;5.03;;;0.00;99.90;;;;;;5031201;28;20049;-88
2023/01/18 03:25:33;;;;;;;6.78;4.75;;;-0.20;99.90;;;;;;5029089;28;20427;-87
2023/01/18 03:33:47;;;;;;;9.68;5.07;;;-1.80;99.90;;;;;;5027563;28;20092;-86
2023/01/18 03:36:26;;;;;;;10.32;5.05;;;0.00;99.90;;;;;;5011242;28;20053;-85
2023/01/18 03:38:59;;;;;;;10.05;5.13;;;-1.50;99.90;;;;;;4997258;28;20049;-85
2023/01/18 03:41:29;;;;;;;8.25;5.00;;;-0.20;99.90;;;;;;5028922;28;20094;-87
2023/01/18 03:44:02;;;;;;;12.48;5.68;;;-0.40;99.90;;;;;;5047059;28;20080;-87
2023/01/18 03:46:31;;;;;;;8.55;5.40;;;-0.80;99.90;;;;;;5014058;28;20530;-86
2023/01/18 03:48:57;;;;;;;9.20;5.63;;;-0.30;99.90;;;;;;5030601;28;20084;-85
2023/01/18 03:51:52;;;;;;;11.23;6.32;;;-0.40;99.90;;;;;;5030546;28;20052;-84
2023/01/18 03:54:50;;;;;;;7.88;5.05;;;-0.10;99.90;;;;;;5020878;28;20223;-86
2023/01/18 03:57:25;;;;;;;9.30;5.60;;;-1.70;99.90;;;;;;5050544;28;20140;-86
2023/01/18 03:59:51;;;;;;;8.02;5.47;;;-2.00;99.90;;;;;;5033831;28;20072;-85
2023/01/18 04:02:17;;;;;;;10.68;5.68;;;-0.90;99.90;;;;;;5050577;28;20098;-86
2023/01/18 04:04:43;;;;;;;10.80;6.00;;;-0.70;99.90;;;;;;5050408;28;20396;-86
2023/01/18 04:07:09;;;;;;;10.93;6.03;;;-0.60;99.90;;;;;;5050165;28;20059;-86
2023/01/18 04:09:35;;;;;;;9.88;6.18;;;-0.60;99.90;;;;;;5066363;28;20044;-86
2023/01/18 04:12:00;;;;;;;11.40;5.70;;;-1.00;99.90;;;;;;5049756;28;20085;-86
2023/01/18 04:14:26;;;;;;;10.63;5.97;;;-2.80;99.90;;;;;;5049772;28;20133;-87
2023/01/18 04:16:52;;;;;;;9.77;5.57;;;-1.60;99.90;;;;;;5032945;28;20041;-87
2023/01/18 04:19:18;;;;;;;10.20;5.50;;;-0.40;99.90;;;;;;5049885;28;20060;-87
2023/01/18 04:21:43;;;;;;;11.07;5.75;;;-0.60;99.90;;;;;;5050628;28;20440;-86
2023/01/18 04:24:10;;;;;;;11.82;6.18;;;-0.60;99.90;;;;;;5050202;28;20044;-86
2023/01/18 04:26:36;;;;;;;11.38;6.03;;;-0.50;99.90;;;;;;5033612;28;20127;-87
2023/01/18 04:29:02;;;;;;;11.30;5.95;;;-2.40;99.90;;;;;;5034047;28;20128;-86
2023/01/18 04:31:31;;;;;;;13.18;6.40;;;-1.70;99.90;;;;;;5101115;27;20618;-85
2023/01/18 04:33:56;;;;;;;10.40;6.30;;;-0.60;99.90;;;;;;5117424;27;20438;-86
2023/01/18 04:36:22;;;;;;;11.77;6.15;;;0.00;99.90;;;;;;5119316;27;20129;-84
2023/01/18 04:38:54;;;;;;;9.52;6.15;;;-0.70;99.90;;;;;;5154985;27;20083;-86
2023/01/18 04:41:20;;;;;;;14.65;6.28;;;-2.10;99.90;;;;;;5155081;27;20042;-86
2023/01/18 04:43:46;;;;;;;10.85;6.28;;;-0.30;99.90;;;;;;5136611;27;20038;-87
2023/01/18 04:46:13;;;;;;;10.05;5.78;;;-2.20;99.90;;;;;;5135903;27;20477;-85
2023/01/18 04:48:39;;;;;;;10.85;5.78;;;-1.00;99.90;;;;;;5132552;27;20063;-86
2023/01/18 04:51:11;;;;;;;10.30;6.13;;;-2.30;99.90;;;;;;5135813;27;20528;-84
2023/01/18 04:53:37;;;;;;;11.80;6.47;;;-2.30;99.90;;;;;;5135917;27;20127;-86
2023/01/18 04:56:03;;;;;;;10.27;5.90;;;-0.90;99.90;;;;;;5135864;27;20046;-85
2023/01/18 04:58:29;;;;;;;11.18;5.95;;;-1.80;99.90;;;;;;5118715;27;20047;-86
2023/01/18 05:00:59;;;;;;;11.93;6.80;;;-0.50;99.90;;;;;;5135572;27;20047;-85
2023/01/18 05:03:24;;;;;;;9.73;5.95;;;-0.80;99.90;;;;;;5135623;27;20043;-86
2023/01/18 05:05:52;;;;;;;12.77;6.28;;;-0.70;99.90;;;;;;5154239;27;20045;-86
2023/01/18 05:08:18;;;;;;;12.27;6.40;;;-0.60;99.90;;;;;;5135528;27;20137;-85
2023/01/18 05:10:43;;;;;;;14.57;6.40;;;-2.20;99.90;;;;;;5103185;27;20157;-86
2023/01/18 05:13:09;;;;;;;11.65;6.43;;;-0.60;99.90;;;;;;5098246;27;20130;-86
2023/01/18 05:15:35;;;;;;;17.15;6.70;;;-1.10;99.90;;;;;;5105969;27;20045;-86
2023/01/18 05:18:01;;;;;;;13.10;6.53;;;-0.80;99.90;;;;;;5135571;27;20035;-86
2023/01/18 05:20:27;;;;;;;13.20;7.00;;;-0.70;99.90;;;;;;5134912;27;20141;-86
2023/01/18 05:22:52;;;;;;;19.52;6.72;;;-2.00;99.90;;;;;;5118533;27;20055;-85
2023/01/18 05:25:18;;;;;;;13.70;6.70;;;-2.00;99.90;;;;;;5118428;27;20053;-86
2023/01/18 05:27:44;;;;;;;17.42;7.28;;;-1.00;99.90;;;;;;5135606;27;20050;-86
2023/01/18 05:30:13;;;;;;;14.20;6.90;;;-0.70;99.90;;;;;;5154153;27;20054;-87
2023/01/18 05:32:38;;;;;;;12.02;7.30;;;-1.40;99.90;;;;;;5117941;27;20043;-86
2023/01/18 05:35:05;;;;;;;13.57;7.05;;;-2.30;99.90;;;;;;5117758;27;20053;-85
2023/01/18 05:37:31;;;;;;;14.35;7.20;;;;;;;;;;5135009;27;20042;-86
2023/01/18 05:39:56;;;;;;;17.08;7.78;;;-1.70;99.90;;;;;;5117366;27;20043;-87
2023/01/18 05:42:22;;;;;;;13.07;7.05;;;-1.40;99.90;;;;;;5118232;27;20106;-85
2023/01/18 05:44:48;;;;;;;15.90;7.40;;;0.00;99.90;;;;;;5117356;27;20047;-85
2023/01/18 05:47:13;;;;;;;12.25;6.88;;;-2.20;99.90;;;;;;5134611;27;20047;-86
2023/01/18 05:49:41;;;;;;;12.02;7.10;;;-1.30;99.90;;;;;;5134633;27;20047;-87
2023/01/18 05:52:07;;;;;;;11.88;7.13;;;-2.50;99.90;;;;;;5134277;27;20051;-86
2023/01/18 05:54:33;;;;;;;16.20;8.02;;;0.10;99.90;;;;;;5134465;27;20110;-85
2023/01/18 05:56:59;;;;;;;17.02;8.45;;;-0.80;99.90;;;;;;5117927;27;20042;-86
2023/01/18 05:59:24;;;;;;;15.38;7.65;;;-0.80;99.90;;;;;;5134679;27;20146;-85
2023/01/18 06:01:50;;;;;;;11.48;6.60;;;-0.80;99.90;;;;;;5153218;27;20095;-85
2023/01/18 06:04:16;;;;;;;11.02;7.00;;;-2.20;99.90;;;;;;5117297;27;20042;-86
2023/01/18 06:06:41;;;;;;;15.38;8.00;;;-1.70;99.90;;;;;;5134476;27;20047;-85
2023/01/18 06:09:07;;;;;;;10.27;7.00;;;-0.70;99.90;;;;;;5134369;27;20388;-86
2023/01/18 06:11:33;;;;;;;11.43;7.25;;;-1.60;99.90;;;;;;5134548;27;20058;-86
2023/01/18 06:13:59;;;;;;;12.98;7.03;;;-0.20;99.90;;;;;;5117106;27;20412;-87
2023/01/18 06:16:24;;;;;;;12.38;7.50;;;-0.20;99.90;;;;;;5116165;27;20134;-86
2023/01/18 06:18:50;;;;;;;12.88;7.80;;;;;;;;;;5117085;27;20158;-85
2023/01/18 06:21:16;;;;;;;14.23;7.47;;;-1.70;99.90;;;;;;5134049;27;20039;-86
2023/01/18 06:23:42;;;;;;;13.73;7.25;;;-0.60;99.90;;;;;;5117222;27;20050;-85
2023/01/18 06:26:08;;;;;;;11.02;6.88;;;-0.60;99.90;;;;;;5133815;27;20512;-86
2023/01/18 06:28:33;;;;;;;15.23;8.70;;;-0.60;99.90;;;;;;5133695;27;20098;-86
2023/01/18 06:31:03;;;;;;;12.32;6.70;;;-0.20;99.90;;;;;;5133715;27;20054;-86
2023/01/18 06:33:29;;;;;;;11.48;6.97;;;-2.20;99.90;;;;;;5152709;27;20054;-86
2023/01/18 06:35:55;;;;;;;14.55;7.07;;;-0.50;99.90;;;;;;5116917;27;20038;-85
2023/01/18 06:38:20;;;;;;;13.52;6.88;;;-0.50;99.90;;;;;;5133595;27;20397;-85
2023/01/18 06:40:46;;;;;;;14.65;6.88;;;-0.50;99.90;;;;;;5152330;27;20524;-86
2023/01/18 06:43:12;;;;;;;17.90;7.05;;;-0.80;99.90;;;;;;5152770;27;20393;-86
2023/01/18 06:45:39;;;;;;;12.93;6.57;;;-2.00;99.90;;;;;;5152483;27;20051;-86
2023/01/18 06:48:04;;;;;;;14.85;7.57;;;-2.10;99.90;;;;;;5133653;27;20047;-86
2023/01/18 06:50:30;;;;;;;15.52;7.40;;;-1.60;99.90;;;;;;5116527;27;20525;-85
2023/01/18 06:52:56;;;;;;;14.32;7.40;;;-0.50;99.90;;;;;;5116196;27;20050;-85
2023/01/18 06:55:21;;;;;;;13.48;7.32;;;-0.90;99.90;;;;;;5152278;27;20042;-85
2023/01/18 06:57:47;;;;;;;14.20;7.45;;;-2.10;99.90;;;;;;5152330;27;20037;-85
2023/01/18 07:00:15;;;;;;;14.02;7.25;;;-1.70;99.90;;;;;;5152438;27;20723;-86
2023/01/18 07:02:41;;;;;;;12.75;7.40;;;-1.60;99.90;;;;;;5133621;27;20050;-85
2023/01/18 07:05:07;;;;;;;14.55;7.35;;;-1.90;99.90;;;;;;5133240;27;20042;-85
2023/01/18 07:07:33;;;;;;;12.95;7.18;;;-1.50;99.90;;;;;;5152025;27;20103;-86
2023/01/18 07:09:58;;;;;;;12.68;6.97;;;-1.90;99.90;;;;;;5151903;27;20042;-86
2023/01/18 07:12:24;;;;;;;15.45;8.13;;;-0.20;99.90;;;;;;5133273;27;20464;-85
2023/01/18 07:14:50;;;;;;;15.02;7.55;;;-0.60;99.90;;;;;;5151667;27;20050;-85
2023/01/18 07:17:15;;;;;;;12.40;6.95;;;-0.20;99.90;;;;;;5133678;27;20207;-85
2023/01/18 07:19:41;;;;;;;18.73;8.00;;;-1.70;99.90;;;;;;5133265;27;20081;-85
2023/01/18 07:22:07;;;;;;;15.32;7.25;;;-0.30;99.90;;;;;;5133345;27;20038;-86
2023/01/18 07:24:32;;;;;;;11.63;7.10;;;-0.40;99.90;;;;;;5133013;27;20046;-85
2023/01/18 07:27:02;;;;;;;13.50;6.93;;;-0.10;99.90;;;;;;5135224;27;20047;-85
2023/01/18 07:29:27;;;;;;;15.43;7.47;;;-1.70;99.90;;;;;;5101709;27;20051;-84
2023/01/18 07:31:53;;;;;;;12.98;7.82;;;-1.70;99.90;;;;;;5151664;27;20045;-85
2023/01/18 07:34:19;;;;;;;14.77;7.03;;;-0.20;99.90;;;;;;5151601;27;20061;-85
2023/01/18 07:36:44;;;;;;;10.02;6.45;;;-0.30;99.90;;;;;;5115061;27;20106;-85
2023/01/18 07:39:10;;;;;;;13.75;6.55;;;-1.60;99.90;;;;;;5132468;27;20047;-84
2023/01/18 07:41:36;;;;;;;12.88;7.20;;;-1.60;99.90;;;;;;5132792;27;20050;-85
2023/01/18 07:44:03;;;;;;;13.60;7.07;;;-1.70;99.90;;;;;;5151577;27;20050;-86
2023/01/18 07:46:28;;;;;;;12.93;7.32;;;-1.50;99.90;;;;;;5151535;27;20080;-82
2023/01/18 07:48:54;;;;;;;16.15;7.28;;;-1.70;99.90;;;;;;5150789;27;20082;-84
2023/01/18 07:51:21;;;;;;;13.20;6.93;;;-1.60;99.90;;;;;;5132797;27;20093;-85
2023/01/18 07:53:47;;;;;;;16.52;7.25;;;-1.80;99.90;;;;;;5115846;27;20099;-83
2023/01/18 07:56:17;;;;;;;13.77;6.93;;;-1.60;99.90;;;;;;5132899;27;20057;-85
2023/01/18 07:58:44;;;;;;;14.73;7.45;;;-1.60;99.90;;;;;;5133178;27;20647;-86
2023/01/18 08:01:15;;;;;;;12.43;6.43;;;-1.60;99.90;;;;;;5132658;27;20046;-84
2023/01/18 08:03:42;;;;;;;15.77;6.75;;;-1.80;99.90;;;;;;5132955;27;20108;-84
2023/01/18 08:06:11;;;;;;;13.48;7.18;;;-0.30;99.90;;;;;;5150857;27;20046;-85
2023/01/18 08:08:37;;;;;;;12.20;6.25;;;-1.70;99.90;;;;;;5152143;27;20059;-85
2023/01/18 08:11:05;;;;;;;10.85;6.38;;;0.10;99.90;;;;;;5155473;27;20050;-85
2023/01/18 08:13:30;;;;;;;11.55;6.55;;;-1.60;99.90;;;;;;5136508;27;20081;-83
2023/01/18 08:16:00;;;;;;;11.52;6.90;;;-1.70;99.90;;;;;;5136586;27;20094;-84
2023/01/18 08:18:25;;;;;;;12.80;7.13;;;-1.70;99.90;;;;;;5131327;27;20050;-85
2023/01/18 08:20:51;;;;;;;14.65;7.15;;;-1.60;99.90;;;;;;5148402;27;20039;-85
2023/01/18 08:23:17;;;;;;;10.80;6.15;;;-1.80;99.90;;;;;;5155308;27;20442;-86
2023/01/18 08:25:44;;;;;;;12.60;6.78;;;-0.10;99.90;;;;;;5136877;27;20039;-85
2023/01/18 08:28:10;;;;;;;12.48;6.18;;;-1.70;99.90;;;;;;5155054;27;20073;-85
2023/01/18 08:30:39;;;;;;;11.88;7.05;;;-1.90;99.90;;;;;;5132298;27;20047;-84
2023/01/18 08:33:06;;;;;;;12.20;6.18;;;-1.70;99.90;;;;;;5150300;27;20051;-86
2023/01/18 08:35:38;;;;;;;12.45;6.72;;;-1.60;99.90;;;;;;5119207;27;20149;-85
2023/01/18 08:38:03;;;;;;;15.13;7.32;;;-1.70;99.90;;;;;;5136122;27;20045;-86
2023/01/18 08:40:29;;;;;;;11.65;6.38;;;-0.10;99.90;;;;;;5154928;27;20114;-86
2023/01/18 08:42:57;;;;;;;15.93;6.93;;;-1.40;99.90;;;;;;5154833;27;20137;-85
2023/01/18 08:45:23;;;;;;;15.55;6.07;;;-1.50;99.90;;;;;;5154627;27;20046;-85
2023/01/18 08:47:55;;;;;;;13.45;6.13;;;0.00;99.90;;;;;;5135873;27;20502;-85
2023/01/18 08:50:22;;;;;;;11.77;6.45;;;-1.40;99.90;;;;;;5154707;27;20050;-83
2023/01/18 08:52:47;;;;;;;11.45;5.63;;;-0.90;99.90;;;;;;5154750;27;20118;-83
2023/01/18 08:55:13;;;;;;;15.00;5.78;;;0.00;99.90;;;;;;5136694;27;20172;-83
2023/01/18 08:57:38;;;;;;;14.80;6.50;;;-1.30;99.90;;;;;;5155408;27;20064;-84
2023/01/18 09:00:05;;;;;;;14.50;6.93;;;0.40;99.90;;;;;;5155049;27;20039;-84
2023/01/18 09:02:31;;;;;;;12.38;6.20;;;-1.10;99.90;;;;;;5154924;27;20046;-83
2023/01/18 09:04:57;;;;;;;11.98;6.78;;;-1.30;99.90;;;;;;5155087;27;20393;-82
2023/01/18 09:07:22;;;;;;;15.48;6.30;;;-1.10;99.90;;;;;;5135790;27;20054;-83
2023/01/18 09:09:48;;;;;;;12.88;5.90;;;-1.00;99.90;;;;;;5136724;27;20446;-83
2023/01/18 09:12:14;;;;;;;16.10;6.60;;;0.40;99.90;;;;;;5136275;27;20062;-83
2023/01/18 09:14:39;;;;;;;12.75;6.45;;;-1.00;99.90;;;;;;5136684;27;20051;-84
2023/01/18 09:17:05;;;;;;;12.07;6.57;;;-1.00;99.90;;;;;;5136775;27;20082;-84
2023/01/18 09:19:31;;;;;;;11.20;6.35;;;-0.90;99.90;;;;;;5154320;27;20687;-84
2023/01/18 09:21:57;;;;;;;13.23;6.35;;;-1.00;99.90;;;;;;5154516;27;20048;-84
2023/01/18 09:24:23;;;;;;;14.05;6.80;;;-0.90;99.90;;;;;;5154857;27;20129;-85
2023/01/18 09:26:52;;;;;;;14.02;6.20;;;-0.60;99.90;;;;;;5154796;27;20039;-83
2023/01/18 09:29:19;;;;;;;13.93;5.88;;;0.70;99.90;;;;;;5136418;27;20553;-85
2023/01/18 09:31:44;;;;;;;12.55;6.30;;;-0.70;99.90;;;;;;5154229;27;20503;-86
2023/01/18 09:34:13;;;;;;;14.65;6.32;;;-0.60;99.90;;;;;;5154498;27;20046;-84
2023/01/18 09:36:39;;;;;;;13.85;6.40;;;-0.50;99.90;;;;;;5154321;27;20043;-83
2023/01/18 09:39:06;;;;;;;14.05;6.30;;;-0.30;99.90;;;;;;5154747;27;20111;-85
2023/01/18 09:41:46;;;;;;;12.15;5.78;;;-0.20;99.90;;;;;;5154257;27;20046;-83
2023/01/18 09:44:32;;;;;;;12.00;6.00;;;-0.10;99.90;;;;;;5135740;27;20155;-84
2023/01/18 09:47:22;;;;;;;10.50;6.40;;;0.20;99.90;;;;;;5135237;27;20111;-86
2023/01/18 09:49:56;;;;;;;13.10;6.60;;;0.40;99.90;;;;;;5154079;27;20106;-88
2023/01/18 09:52:42;;;;;;;9.73;5.80;;;0.50;99.90;;;;;;5154347;27;20401;-83
2023/01/18 09:55:37;;;;;;;12.70;5.97;;;0.70;99.90;;;;;;5135574;27;20069;-85
2023/01/18 09:58:30;;;;;;;14.35;6.60;;;0.80;99.90;;;;;;5153906;27;20429;-83
2023/01/18 10:01:07;;;;;;;9.32;5.35;;;0.90;99.90;;;;;;5153801;27;20446;-81
2023/01/18 10:03:45;;;;;;;11.25;5.50;;;0.70;99.90;;;;;;5153948;27;20052;-84
2023/01/18 10:06:42;;;;;;;15.02;5.53;;;1.00;99.90;;;;;;5134544;27;20046;-83
2023/01/18 10:09:31;;;;;;;13.70;5.82;;;1.40;99.90;;;;;;5153757;27;20109;-84
2023/01/18 10:11:58;;;;;;;10.07;5.03;;;1.50;99.90;;;;;;5134689;27;20038;-85
2023/01/18 10:14:42;;;;;;;9.68;5.25;;;1.60;99.90;;;;;;5152901;27;20070;-85
2023/01/18 10:17:16;;;;;;;14.63;5.57;;;1.80;99.90;;;;;;5134432;27;20043;-85
2023/01/18 10:19:42;;;;;;;11.00;5.10;;;2.00;99.90;;;;;;5134397;27;20082;-86
2023/01/18 10:22:31;;;;;;;10.02;5.13;;;2.10;99.90;;;;;;5153188;27;20039;-86
2023/01/18 10:25:21;;;;;;;11.30;5.22;;;2.20;99.90;;;;;;5134124;27;20043;-85
2023/01/18 10:28:14;;;;;;;9.57;4.90;;;2.40;99.90;;;;;;5152974;27;20054;-86
2023/01/18 10:31:01;;;;;;;10.48;5.15;;;2.50;99.90;;;;;;5133439;27;20055;-85
2023/01/18 10:33:32;;;;;;;9.68;4.80;;;2.60;99.90;;;;;;5116002;27;20058;-87
2023/01/18 10:36:13;;;;;;;9.57;5.45;;;2.80;99.90;;;;;;5152959;27;20045;-87
2023/01/18 10:38:40;;;;;;;11.60;4.75;;;2.80;99.90;;;;;;5134269;27;20050;-87
2023/01/18 10:41:19;;;;;;;9.00;4.50;;;2.90;99.90;;;;;;5152717;27;20039;-86
2023/01/18 10:43:45;;;;;;;10.13;4.57;;;3.00;99.90;;;;;;5133585;27;20058;-86
2023/01/18 10:46:17;;;;;;;15.63;5.13;;;4.40;99.90;;;;;;5152635;27;20046;-85
2023/01/18 10:48:48;;;;;;;11.25;4.57;;;3.20;99.90;;;;;;5152329;27;20058;-85
2023/01/18 10:51:31;;;;;;;10.70;4.72;;;4.50;99.90;;;;;;5134053;27;20542;-86
2023/01/18 10:53:57;;;;;;;9.23;4.30;;;3.40;99.90;;;;;;5152324;27;20110;-86
2023/01/18 10:56:25;;;;;;;11.30;4.93;;;4.50;99.90;;;;;;5151733;27;20050;-85
2023/01/18 10:58:59;;;;;;;12.00;4.50;;;3.50;99.90;;;;;;5120070;27;20051;-83
2023/01/18 11:01:32;;;;;;;8.10;4.35;;;4.40;99.90;;;;;;5101181;27;20051;-87
2023/01/18 11:04:07;;;;;;;9.93;4.43;;;3.70;99.90;;;;;;5112970;27;20047;-86
2023/01/18 11:06:48;;;;;;;12.60;4.90;;;3.80;99.90;;;;;;5113106;27;20482;-84
2023/01/18 11:09:50;;;;;;;11.73;4.85;;;3.90;99.90;;;;;;5131540;27;20051;-85
2023/01/18 11:12:36;;;;;;;9.88;4.88;;;3.90;99.90;;;;;;5145757;27;20125;-85
2023/01/18 11:15:14;;;;;;;11.80;4.68;;;3.90;99.90;;;;;;5142671;27;20447;-84
2023/01/18 11:17:40;;;;;;;12.57;4.50;;;5.50;99.90;;;;;;5131646;27;20038;-86
2023/01/18 11:20:14;;;;;;;9.00;5.47;;;4.50;99.90;;;;;;5130103;27;20051;-86
2023/01/18 11:22:53;;;;;;;10.07;5.03;;;4.00;99.90;;;;;;5141628;27;20071;-86
2023/01/18 11:25:19;;;;;;;13.05;4.43;;;4.30;99.90;;;;;;5150631;27;20408;-83
2023/01/18 11:27:48;;;;;;;7.72;4.03;;;4.20;99.90;;;;;;5143367;27;20043;-85
2023/01/18 11:30:21;;;;;;;9.60;4.40;;;5.30;99.90;;;;;;5129612;27;20049;-86
2023/01/18 11:32:49;;;;;;;9.25;4.93;;;4.00;99.90;;;;;;5131487;27;20047;-87
2023/01/18 11:35:32;;;;;;;11.13;4.30;;;5.10;99.90;;;;;;5112671;27;20047;-85
2023/01/18 11:37:59;;;;;;;8.55;4.00;;;4.10;99.90;;;;;;5131130;27;20050;-85
2023/01/18 11:40:31;;;;;;;9.77;4.57;;;5.30;99.90;;;;;;5132509;27;20038;-85
2023/01/18 11:43:14;;;;;;;15.27;4.70;;;4.20;99.90;;;;;;5151637;27;20042;-84
2023/01/18 11:45:54;;;;;;;7.95;4.50;;;4.30;99.90;;;;;;5132963;27;20606;-85
2023/01/18 11:48:31;;;;;;;11.65;4.50;;;4.40;99.90;;;;;;5151006;27;20050;-86
2023/01/18 11:51:14;;;;;;;11.63;4.63;;;4.60;99.90;;;;;;5151363;27;20393;-85
2023/01/18 11:54:21;;;;;;;9.48;4.35;;;4.60;99.90;;;;;;5150995;27;20397;-88
2023/01/18 11:56:54;;;;;;;12.32;3.85;;;5.90;99.90;;;;;;5135319;27;20061;-88
2023/01/18 11:59:25;;;;;;;6.53;3.88;;;4.60;99.90;;;;;;5133190;27;20107;-88
2023/01/18 12:02:12;;;;;;;5.32;3.35;;;6.00;99.90;;;;;;5133187;27;20493;-90
2023/01/18 12:05:04;;;;;;;5.60;3.33;;;4.90;99.90;;;;;;5151656;27;20047;-89
2023/01/18 12:07:48;;;;;;;7.63;3.33;;;5.50;99.90;;;;;;5046477;28;20063;-86
2023/01/18 12:10:27;;;;;;;11.15;4.63;;;5.00;99.90;;;;;;5042629;28;20041;-86
2023/01/18 12:13:27;;;;;;;7.97;3.80;;;5.00;99.90;;;;;;5013868;28;20101;-86
2023/01/18 12:16:06;;;;;;;9.40;4.53;;;5.10;99.90;;;;;;5031090;28;20080;-91
2023/01/18 12:18:56;;;;;;;8.30;3.80;;;6.10;99.90;;;;;;5029987;28;20102;-90
2023/01/18 12:21:41;;;;;;;10.23;4.30;;;5.20;99.90;;;;;;5046998;28;20445;-87
2023/01/18 12:24:30;;;;;;;7.30;3.67;;;5.40;99.90;;;;;;5031096;28;20053;-89
2023/01/18 12:27:17;;;;;;;8.50;3.67;;;4.40;99.90;;;;;;5014390;28;20156;-92
2023/01/18 12:29:56;;;;;;;8.20;3.92;;;5.30;99.90;;;;;;5047979;28;20547;-91
2023/01/18 12:32:47;;;;;;;8.13;3.85;;;5.20;99.90;;;;;;5014437;28;20077;-92
2023/01/18 12:35:13;;;;;;;7.70;3.85;;;5.30;99.90;;;;;;5015063;28;20053;-89
2023/01/18 12:37:59;;;;;;;7.57;3.58;;;6.30;99.90;;;;;;5014723;28;20103;-92
2023/01/18 12:40:55;;;;;;;8.02;3.60;;;5.40;99.90;;;;;;5048173;28;20103;-88
2023/01/18 12:43:42;;;;;;;10.15;3.35;;;5.50;99.90;;;;;;5043288;27;20088;-89
2023/01/18 12:46:30;;;;;;;6.82;3.60;;;5.40;99.90;;;;;;5133018;27;20045;-88
2023/01/18 12:49:22;;;;;;;13.35;3.63;;;5.50;99.90;;;;;;5115969;27;20110;-90
2023/01/18 12:52:00;;;;;;;9.20;3.53;;;6.60;99.90;;;;;;5116568;27;20573;-90
2023/01/18 12:54:35;;;;;;;7.30;3.33;;;6.40;99.90;;;;;;5116860;27;20038;-88
2023/01/18 12:57:02;;;;;;;7.00;3.55;;;5.70;99.90;;;;;;5155759;27;20485;-93
2023/01/18 12:59:39;;;;;;;7.50;3.05;;;6.50;99.90;;;;;;5119823;27;20038;-88
2023/01/18 13:02:40;;;;;;;7.40;3.47;;;6.50;99.90;;;;;;5136919;27;20042;-88
2023/01/18 13:05:25;;;;;;;15.70;3.67;;;5.10;99.90;;;;;;5050908;28;20538;-89
2023/01/18 13:08:10;;;;;;;9.20;3.40;;;5.20;99.90;;;;;;5050894;28;20139;-89
2023/01/18 13:10:40;;;;;;;8.35;3.00;;;4.90;99.90;;;;;;5017921;28;20060;-89
2023/01/18 13:13:17;;;;;;;5.50;2.65;;;5.80;99.90;;;;;;5017519;28;20132;-90
2023/01/18 13:15:49;;;;;;;11.70;3.13;;;4.60;99.90;;;;;;5033501;28;20053;-88
2023/01/18 13:18:27;;;;;;;9.45;3.03;;;4.50;99.90;;;;;;5017258;28;20051;-90
2023/01/18 13:21:08;;;;;;;6.65;2.85;;;3.60;99.90;;;;;;5017438;28;20110;-87
2023/01/18 13:23:53;;;;;;;7.70;3.63;;;4.40;99.90;;;;;;5017835;28;20052;-87
2023/01/18 13:26:32;;;;;;;8.52;2.65;;;4.30;99.90;;;;;;5017179;28;20045;-91
2023/01/18 13:29:30;;;;;;;20.05;4.18;;;5.40;99.90;;;;;;5050053;28;20063;-91
2023/01/18 13:31:57;;;;;;;12.75;2.40;;;4.40;99.90;;;;;;5016511;28;20091;-87
2023/01/18 13:34:36;;;;;;;7.68;2.88;;;4.30;99.90;;;;;;5033032;28;20107;-88
2023/01/18 13:37:05;;;;;;;8.38;2.38;;;5.10;99.90;;;;;;5017306;28;20114;-89
2023/01/18 13:39:44;;;;;;;7.07;2.78;;;5.30;99.90;;;;;;5034923;27;20088;-88
2023/01/18 13:42:12;;;;;;;7.85;2.70;;;5.40;99.90;;;;;;5134830;27;20053;-88
2023/01/18 13:44:43;;;;;;;7.35;2.30;;;5.00;99.90;;;;;;5118265;27;20051;-88
2023/01/18 13:47:44;;;;;;;8.27;3.30;;;5.00;99.90;;;;;;5117247;27;20054;-88
2023/01/18 13:50:34;;;;;;;9.63;2.97;;;3.90;99.90;;;;;;5112921;27;20047;-86
2023/01/18 13:53:19;;;;;;;10.45;3.05;;;5.20;99.90;;;;;;5114858;27;20049;-87
2023/01/18 13:55:54;;;;;;;11.48;3.08;;;5.00;99.90;;;;;;5114708;27;20051;-88